Time;durP1;ratioP1;P1;durP2;ratioP2;P2;SDS_P1;SDS_P2;PMS_P1;PMS_P2;Temp;Humidity;BMP_temperature;BMP_pressure;BME280_temperature;BME280_humidity;BME280_pressure;Samples;Min_cycle;Max_cycle;Signal;HPM_P1;HPM_P2
2023/08/31 00:01:05;;;;;;;5.20;2.90;;;14.00;98.70;;;;;;5075132;28;20534;-88
2023/08/31 00:03:32;;;;;;;6.33;3.37;;;14.00;98.50;;;;;;5061551;28;20479;-88
2023/08/31 00:06:03;;;;;;;6.97;3.27;;;13.90;98.10;;;;;;5054636;28;20437;-89
2023/08/31 00:08:30;;;;;;;8.50;3.80;;;13.90;98.20;;;;;;5054745;28;20899;-88
2023/08/31 00:10:58;;;;;;;7.73;4.40;;;13.90;97.90;;;;;;5054570;28;20491;-88
2023/08/31 00:13:26;;;;;;;9.10;6.60;;;13.90;98.00;;;;;;5054551;28;20441;-88
2023/08/31 00:15:57;;;;;;;8.27;3.90;;;13.80;98.00;;;;;;5054429;28;20519;-87
2023/08/31 00:18:24;;;;;;;6.90;4.20;;;13.80;98.10;;;;;;5054365;28;20461;-88
2023/08/31 00:20:51;;;;;;;4.23;2.80;;;13.70;98.10;;;;;;5054623;28;20499;-88
2023/08/31 00:23:19;;;;;;;5.60;3.50;;;13.70;98.40;;;;;;5054289;28;20510;-87
2023/08/31 00:25:48;;;;;;;7.47;3.90;;;13.60;98.70;;;;;;5054628;28;20465;-88
2023/08/31 00:28:15;;;;;;;6.10;4.10;;;13.70;98.60;;;;;;5054633;28;20960;-87
2023/08/31 00:30:44;;;;;;;5.13;4.27;;;13.70;98.70;;;;;;5054045;28;20938;-88
2023/08/31 00:33:12;;;;;;;4.70;3.50;;;13.70;98.70;;;;;;5054515;28;20440;-88
2023/08/31 00:35:43;;;;;;;4.00;2.93;;;13.60;98.90;;;;;;5054407;28;20484;-88
2023/08/31 00:38:10;;;;;;;4.37;2.80;;;13.60;99.00;;;;;;5054272;28;20931;-88
2023/08/31 00:40:44;;;;;;;6.63;2.70;;;13.50;98.90;;;;;;5054591;28;20491;-88
2023/08/31 00:43:17;;;;;;;4.00;2.03;;;13.50;99.10;;;;;;5054244;28;20472;-85
2023/08/31 00:45:45;;;;;;;5.87;2.37;;;13.50;99.00;;;;;;5034835;28;20425;-88
2023/08/31 00:48:16;;;;;;;3.70;2.23;;;13.40;99.10;;;;;;5034373;28;20519;-88
2023/08/31 00:50:43;;;;;;;3.13;2.17;;;13.40;99.00;;;;;;5034311;28;20426;-88
2023/08/31 00:53:11;;;;;;;2.90;2.07;;;13.40;98.90;;;;;;5033842;28;20438;-86
2023/08/31 00:55:38;;;;;;;4.00;2.33;;;13.20;98.90;;;;;;5039789;28;20465;-86
2023/08/31 00:58:22;;;;;;;3.80;2.63;;;13.20;98.90;;;;;;5053886;28;20464;-87
2023/08/31 01:00:59;;;;;;;4.03;2.00;;;13.10;98.90;;;;;;5054093;28;20825;-87
2023/08/31 01:03:33;;;;;;;4.77;3.17;;;13.00;99.10;;;;;;5053977;28;20505;-87
2023/08/31 01:06:13;;;;;;;4.00;2.53;;;13.00;99.10;;;;;;5053778;28;20786;-87
2023/08/31 01:08:47;;;;;;;4.90;2.40;;;13.00;99.40;;;;;;5053616;28;20871;-87
2023/08/31 01:11:22;;;;;;;4.07;2.13;;;13.00;99.40;;;;;;5066048;28;20792;-87
2023/08/31 01:13:59;;;;;;;3.20;1.63;;;13.00;99.30;;;;;;5073532;28;20757;-88
2023/08/31 01:16:26;;;;;;;4.47;2.50;;;13.00;99.70;;;;;;5074035;28;20431;-87
2023/08/31 01:18:54;;;;;;;5.27;3.40;;;13.00;99.70;;;;;;5073717;28;20816;-88
2023/08/31 01:21:28;;;;;;;3.73;2.40;;;13.00;99.70;;;;;;5073264;28;20497;-87
2023/08/31 01:23:58;;;;;;;6.23;3.60;;;13.00;99.80;;;;;;5073661;28;20413;-86
2023/08/31 01:26:25;;;;;;;4.87;3.20;;;13.00;99.60;;;;;;5073545;28;20437;-87
2023/08/31 01:28:53;;;;;;;5.67;3.20;;;12.90;99.60;;;;;;5073536;28;20440;-87
2023/08/31 01:31:21;;;;;;;5.03;2.70;;;12.80;99.60;;;;;;5071129;28;20457;-87
2023/08/31 01:33:48;;;;;;;4.00;3.10;;;12.80;99.70;;;;;;5052822;28;20490;-87
2023/08/31 01:36:21;;;;;;;4.00;2.10;;;12.80;99.80;;;;;;5053312;28;20436;-87
2023/08/31 01:38:55;;;;;;;3.90;2.87;;;12.80;99.90;;;;;;5053339;28;20416;-87
2023/08/31 01:41:24;;;;;;;3.77;2.57;;;12.70;99.90;;;;;;5053164;28;20781;-87
2023/08/31 01:43:53;;;;;;;4.50;2.40;;;12.80;99.90;;;;;;5052965;28;20529;-85
2023/08/31 01:46:20;;;;;;;4.03;3.00;;;12.80;99.90;;;;;;5053283;28;20443;-87
2023/08/31 01:48:47;;;;;;;3.10;2.20;;;12.80;99.90;;;;;;5053254;28;20793;-87
2023/08/31 01:51:19;;;;;;;2.60;2.00;;;12.80;99.90;;;;;;5052841;28;20489;-87
2023/08/31 01:53:46;;;;;;;2.97;2.37;;;12.90;99.90;;;;;;5053388;28;20433;-87
2023/08/31 01:56:15;;;;;;;4.00;2.90;;;13.00;99.90;;;;;;5052938;28;20437;-87
2023/08/31 01:58:43;;;;;;;3.63;2.30;;;13.00;99.90;;;;;;5052963;28;20853;-86
2023/08/31 02:01:10;;;;;;;3.97;2.77;;;13.00;99.90;;;;;;5053946;28;20913;-87
2023/08/31 02:03:39;;;;;;;3.80;2.73;;;13.10;99.90;;;;;;5056935;28;20473;-87
2023/08/31 02:06:06;;;;;;;3.03;2.40;;;13.20;99.70;;;;;;5058113;28;20498;-87
2023/08/31 02:08:33;;;;;;;3.63;2.63;;;13.20;99.70;;;;;;5056957;28;20558;-88
2023/08/31 02:11:00;;;;;;;3.23;2.07;;;13.30;99.60;;;;;;5057297;28;20430;-87
2023/08/31 02:13:28;;;;;;;4.20;3.17;;;13.30;99.30;;;;;;5057288;28;20829;-87
2023/08/31 02:15:57;;;;;;;3.87;2.50;;;13.40;99.20;;;;;;5057323;28;20523;-87
2023/08/31 02:18:24;;;;;;;4.40;3.10;;;13.40;99.10;;;;;;5057042;28;20425;-87
2023/08/31 02:20:53;;;;;;;4.33;2.50;;;13.50;99.10;;;;;;5059578;28;20458;-87
2023/08/31 02:23:20;;;;;;;4.70;3.30;;;13.50;98.80;;;;;;5077021;28;20459;-87
2023/08/31 02:25:47;;;;;;;4.47;2.90;;;13.50;99.00;;;;;;5076227;28;20494;-87
2023/08/31 02:28:14;;;;;;;3.30;2.60;;;13.60;99.30;;;;;;5076911;28;20436;-84
2023/08/31 02:30:41;;;;;;;7.60;2.93;;;13.60;99.40;;;;;;5068924;28;20448;-87
2023/08/31 02:33:10;;;;;;;3.10;2.33;;;13.70;99.50;;;;;;5056409;28;20569;-87
2023/08/31 02:35:37;;;;;;;2.90;2.03;;;13.60;99.60;;;;;;5056588;28;20464;-87
2023/08/31 02:38:04;;;;;;;3.40;2.10;;;13.60;99.60;;;;;;5056622;28;20768;-85
2023/08/31 02:40:31;;;;;;;3.37;2.50;;;13.70;99.60;;;;;;5056335;28;21033;-87
2023/08/31 02:43:03;;;;;;;3.50;2.63;;;13.70;99.40;;;;;;5056394;28;20472;-86
2023/08/31 02:45:30;;;;;;;3.73;2.37;;;13.70;98.90;;;;;;5056478;28;20444;-87
2023/08/31 02:47:57;;;;;;;3.63;2.23;;;13.80;98.70;;;;;;5056627;28;20440;-85
2023/08/31 02:50:25;;;;;;;3.23;2.50;;;13.90;98.90;;;;;;5056165;28;20493;-86
2023/08/31 02:52:52;;;;;;;3.77;2.53;;;13.90;98.80;;;;;;5056122;28;20482;-86
2023/08/31 02:55:21;;;;;;;6.90;2.47;;;13.90;98.90;;;;;;5056458;28;20468;-86
2023/08/31 02:57:48;;;;;;;5.63;2.60;;;14.00;98.70;;;;;;5056090;28;20799;-86
2023/08/31 03:00:16;;;;;;;6.17;2.97;;;14.10;98.90;;;;;;5056055;28;20416;-86
2023/08/31 03:02:44;;;;;;;4.90;3.77;;;14.10;99.20;;;;;;5056089;28;20482;-86
2023/08/31 03:05:11;;;;;;;4.70;3.10;;;14.20;99.70;;;;;;5055988;28;20462;-87
2023/08/31 03:07:40;;;;;;;5.50;3.33;;;14.20;99.90;;;;;;5055622;28;20499;-88
2023/08/31 03:10:08;;;;;;;3.50;2.30;;;14.30;99.90;;;;;;5055996;28;20433;-87
2023/08/31 03:12:35;;;;;;;3.87;2.60;;;14.30;99.90;;;;;;5055281;28;20486;-85
2023/08/31 03:15:02;;;;;;;3.33;1.80;;;14.40;99.90;;;;;;5055535;28;20438;-84
2023/08/31 03:17:29;;;;;;;3.97;2.40;;;14.40;99.90;;;;;;5055628;28;20444;-85
2023/08/31 03:19:56;;;;;;;4.10;2.03;;;14.40;99.90;;;;;;5055441;28;20445;-86
2023/08/31 03:22:23;;;;;;;3.77;2.17;;;14.50;99.90;;;;;;5061501;28;20529;-86
2023/08/31 03:24:52;;;;;;;3.47;2.37;;;14.50;99.90;;;;;;5075803;28;20795;-86
2023/08/31 03:27:19;;;;;;;4.40;2.30;;;14.50;99.90;;;;;;5076030;28;20440;-86
2023/08/31 03:29:46;;;;;;;3.37;2.10;;;14.50;99.90;;;;;;5075243;28;20432;-87
2023/08/31 03:32:13;;;;;;;4.93;3.00;;;14.50;99.90;;;;;;5073159;28;20433;-87
2023/08/31 03:34:40;;;;;;;4.10;2.43;;;14.50;99.90;;;;;;5075616;28;20570;-87
2023/08/31 03:37:07;;;;;;;3.60;2.60;;;14.50;99.90;;;;;;5075412;28;20504;-88
2023/08/31 03:39:34;;;;;;;3.23;2.40;;;14.50;99.90;;;;;;5075275;28;20969;-87
2023/08/31 03:42:02;;;;;;;4.20;2.30;;;14.50;99.90;;;;;;5059774;28;20465;-88
2023/08/31 03:44:29;;;;;;;5.03;1.60;;;14.50;99.90;;;;;;5055329;28;20908;-88
2023/08/31 03:46:56;;;;;;;4.83;3.17;;;14.50;99.90;;;;;;5055057;28;20516;-87
2023/08/31 03:49:23;;;;;;;4.23;2.77;;;14.50;99.90;;;;;;5055349;28;20491;-88
2023/08/31 03:51:53;;;;;;;7.73;2.57;;;14.60;99.90;;;;;;5068265;28;20447;-87
2023/08/31 03:54:20;;;;;;;3.73;2.33;;;14.60;99.90;;;;;;5074750;28;20445;-87
2023/08/31 03:56:47;;;;;;;3.50;2.57;;;14.50;99.90;;;;;;5074914;28;20972;-88
2023/08/31 03:59:16;;;;;;;2.87;1.83;;;14.50;99.90;;;;;;5075503;28;20854;-89
2023/08/31 04:01:42;;;;;;;3.60;2.27;;;14.50;99.90;;;;;;5061715;28;20442;-87
2023/08/31 04:04:09;;;;;;;3.67;2.00;;;14.50;99.90;;;;;;5054934;28;20555;-88
2023/08/31 04:06:36;;;;;;;4.37;2.60;;;14.50;99.90;;;;;;5055057;28;20860;-88
2023/08/31 04:09:04;;;;;;;2.70;1.67;;;14.50;99.90;;;;;;5054651;28;20780;-88
2023/08/31 04:11:31;;;;;;;3.40;2.50;;;14.50;99.90;;;;;;5065268;28;20447;-88
2023/08/31 04:13:58;;;;;;;3.73;1.53;;;14.50;99.90;;;;;;5074878;28;20562;-88
2023/08/31 04:16:26;;;;;;;4.27;1.50;;;14.50;99.90;;;;;;5069915;28;20952;-86
2023/08/31 04:18:53;;;;;;;2.90;1.53;;;14.50;99.90;;;;;;5054282;28;20446;-88
2023/08/31 04:21:20;;;;;;;2.83;1.70;;;14.40;99.90;;;;;;5063861;28;20444;-87
2023/08/31 04:23:47;;;;;;;2.73;1.47;;;14.50;99.90;;;;;;5073503;28;20991;-87
2023/08/31 04:26:14;;;;;;;3.27;2.23;;;14.40;99.90;;;;;;5074359;28;20435;-87
2023/08/31 04:28:42;;;;;;;2.57;1.50;;;14.40;99.90;;;;;;5074687;28;20432;-87
2023/08/31 04:31:09;;;;;;;4.00;1.87;;;14.40;99.90;;;;;;5066634;28;20510;-87
2023/08/31 04:33:39;;;;;;;2.67;1.53;;;14.30;99.90;;;;;;5054297;28;20430;-86
2023/08/31 04:36:06;;;;;;;3.63;1.73;;;14.30;99.90;;;;;;5054532;28;20426;-86
2023/08/31 04:38:34;;;;;;;3.27;1.70;;;14.30;99.90;;;;;;5054347;28;20518;-85
2023/08/31 04:41:02;;;;;;;3.60;1.97;;;14.30;99.90;;;;;;5047386;28;20521;-86
2023/08/31 04:43:29;;;;;;;3.20;1.70;;;14.30;99.90;;;;;;5074097;28;20479;-86
2023/08/31 04:45:56;;;;;;;3.60;2.00;;;14.20;99.90;;;;;;5074033;28;20474;-87
2023/08/31 04:48:25;;;;;;;2.80;1.60;;;14.20;99.90;;;;;;5073744;28;20437;-86
2023/08/31 04:50:57;;;;;;;4.57;2.67;;;14.10;99.90;;;;;;5071813;28;21030;-86
2023/08/31 04:53:24;;;;;;;3.00;2.10;;;14.10;99.90;;;;;;5074005;28;20825;-85
2023/08/31 04:55:56;;;;;;;4.27;2.90;;;14.10;99.90;;;;;;5073204;28;20440;-86
2023/08/31 04:58:23;;;;;;;2.80;1.63;;;14.10;99.90;;;;;;5073565;28;20503;-85
2023/08/31 05:00:50;;;;;;;4.47;2.30;;;14.10;99.90;;;;;;5069662;28;20466;-85
2023/08/31 05:03:17;;;;;;;5.30;2.37;;;14.20;99.90;;;;;;5053641;28;20877;-86
2023/08/31 05:05:44;;;;;;;4.60;2.40;;;14.10;99.90;;;;;;5052062;28;20438;-86
2023/08/31 05:08:12;;;;;;;3.93;2.50;;;14.10;99.90;;;;;;4998877;28;20430;-81
2023/08/31 05:10:40;;;;;;;3.90;2.00;;;14.10;99.90;;;;;;5047861;28;20429;-86
2023/08/31 05:13:10;;;;;;;3.03;1.90;;;14.20;99.90;;;;;;5050657;28;20833;-86
2023/08/31 05:15:38;;;;;;;4.70;2.73;;;14.20;99.90;;;;;;5051340;28;20465;-82
2023/08/31 05:18:08;;;;;;;4.23;2.80;;;14.20;99.90;;;;;;5051808;28;20440;-85
2023/08/31 05:20:39;;;;;;;8.90;2.40;;;14.20;99.90;;;;;;5051298;28;20529;-86
2023/08/31 05:23:06;;;;;;;6.23;3.40;;;14.20;99.90;;;;;;5051296;28;20488;-85
2023/08/31 05:25:34;;;;;;;5.00;3.60;;;14.30;99.90;;;;;;5051925;28;20448;-86
2023/08/31 05:28:03;;;;;;;5.80;4.10;;;14.30;99.90;;;;;;5051257;28;20464;-87
2023/08/31 05:30:30;;;;;;;10.23;3.27;;;14.30;99.90;;;;;;5049378;28;20510;-80
2023/08/31 05:33:01;;;;;;;4.67;3.27;;;14.40;99.90;;;;;;5041495;28;20981;-87
2023/08/31 05:35:28;;;;;;;4.03;2.57;;;14.40;99.90;;;;;;5058008;28;20425;-86
2023/08/31 05:37:55;;;;;;;3.60;2.20;;;14.50;99.90;;;;;;5055803;28;20461;-87
2023/08/31 05:40:24;;;;;;;4.73;2.83;;;14.50;99.90;;;;;;5052535;28;20461;-85
2023/08/31 05:42:54;;;;;;;3.23;2.37;;;14.50;99.90;;;;;;5052704;28;20524;-86
2023/08/31 05:45:21;;;;;;;3.80;2.60;;;14.50;99.90;;;;;;5057814;28;21336;-86
2023/08/31 05:47:48;;;;;;;3.90;2.70;;;14.50;99.90;;;;;;5055818;28;20464;-86
2023/08/31 05:50:17;;;;;;;3.00;2.00;;;14.50;99.90;;;;;;5057628;28;20449;-87
2023/08/31 05:52:44;;;;;;;3.17;2.13;;;14.60;99.90;;;;;;5051781;28;20442;-87
2023/08/31 05:55:11;;;;;;;3.93;2.47;;;14.60;99.90;;;;;;5056203;28;20444;-86
2023/08/31 05:57:38;;;;;;;3.20;1.97;;;14.70;99.90;;;;;;5051587;28;20488;-86
2023/08/31 06:00:09;;;;;;;3.37;2.47;;;14.70;99.90;;;;;;5056109;28;20436;-86
2023/08/31 06:02:36;;;;;;;3.17;2.27;;;14.70;99.90;;;;;;5051974;28;20453;-86
2023/08/31 06:05:04;;;;;;;3.63;2.37;;;14.80;99.90;;;;;;5051988;28;20475;-86
2023/08/31 06:07:32;;;;;;;8.43;3.20;;;14.80;99.90;;;;;;5051900;28;20469;-86
2023/08/31 06:10:01;;;;;;;5.83;3.03;;;14.80;99.90;;;;;;5052078;28;20927;-86
2023/08/31 06:12:28;;;;;;;5.43;3.07;;;14.80;99.90;;;;;;5052233;28;20441;-86
2023/08/31 06:14:55;;;;;;;6.40;4.50;;;14.90;99.90;;;;;;5051956;28;20433;-86
2023/08/31 06:17:24;;;;;;;7.53;4.53;;;15.00;99.90;;;;;;5052192;28;20465;-84
2023/08/31 06:19:51;;;;;;;5.90;3.83;;;15.10;99.90;;;;;;5052143;28;20521;-84
2023/08/31 06:22:22;;;;;;;5.20;3.33;;;15.20;99.90;;;;;;5054123;28;20437;-85
2023/08/31 06:24:49;;;;;;;5.53;3.70;;;15.20;99.90;;;;;;5030558;28;20462;-84
2023/08/31 06:27:29;;;;;;;5.13;2.90;;;15.20;99.90;;;;;;5032171;28;20786;-86
2023/08/31 06:29:57;;;;;;;5.23;3.60;;;15.20;99.90;;;;;;5032597;28;20422;-85
2023/08/31 06:32:27;;;;;;;3.87;2.97;;;15.20;99.90;;;;;;5033032;28;20445;-85
2023/08/31 06:34:54;;;;;;;4.20;3.50;;;15.20;99.90;;;;;;5032814;28;20777;-85
2023/08/31 06:37:21;;;;;;;3.83;3.13;;;15.20;99.90;;;;;;5032801;28;20480;-85
2023/08/31 06:39:48;;;;;;;8.27;3.70;;;15.20;99.90;;;;;;5032432;28;20461;-85
2023/08/31 06:42:15;;;;;;;4.20;3.13;;;15.20;99.90;;;;;;5032673;28;20801;-85
2023/08/31 06:44:43;;;;;;;5.10;3.50;;;15.20;99.90;;;;;;5032314;28;20533;-85
2023/08/31 06:47:10;;;;;;;4.50;3.20;;;15.10;99.90;;;;;;5033757;28;20516;-86
2023/08/31 06:49:39;;;;;;;4.63;3.27;;;15.10;99.90;;;;;;5036035;28;20576;-85
2023/08/31 06:52:07;;;;;;;4.97;3.20;;;15.10;99.90;;;;;;5036407;28;20496;-85
2023/08/31 06:54:34;;;;;;;4.43;3.20;;;15.10;99.90;;;;;;5036065;28;20457;-86
2023/08/31 06:57:02;;;;;;;5.57;3.30;;;15.20;99.90;;;;;;5036014;28;20442;-85
2023/08/31 06:59:30;;;;;;;4.77;3.03;;;15.20;99.90;;;;;;5036416;28;20461;-86
2023/08/31 07:01:57;;;;;;;8.63;4.07;;;15.20;99.90;;;;;;5035789;28;20920;-86
2023/08/31 07:04:24;;;;;;;4.70;3.10;;;15.20;99.90;;;;;;5035973;28;20477;-86
2023/08/31 07:06:52;;;;;;;4.57;3.60;;;15.20;99.90;;;;;;5036109;28;20469;-85
2023/08/31 07:09:19;;;;;;;8.07;3.20;;;15.20;99.90;;;;;;5036115;28;20777;-85
2023/08/31 07:11:46;;;;;;;5.07;2.70;;;15.20;99.90;;;;;;5035994;28;20488;-85
2023/08/31 07:14:13;;;;;;;3.80;2.83;;;15.20;99.90;;;;;;5035906;28;20438;-85
2023/08/31 07:16:40;;;;;;;5.87;3.43;;;15.10;99.90;;;;;;5035914;28;20594;-85
2023/08/31 07:19:07;;;;;;;4.60;3.20;;;15.10;99.90;;;;;;5035768;28;20430;-85
2023/08/31 07:21:34;;;;;;;4.43;3.17;;;15.00;99.90;;;;;;5035840;28;20769;-85
2023/08/31 07:24:04;;;;;;;4.40;2.33;;;15.00;99.90;;;;;;5035405;28;20499;-85
2023/08/31 07:26:32;;;;;;;4.10;3.10;;;15.10;99.90;;;;;;5035750;28;20793;-85
2023/08/31 07:28:59;;;;;;;3.50;2.60;;;15.10;99.90;;;;;;5035441;28;20921;-85
2023/08/31 07:31:26;;;;;;;3.93;2.80;;;15.10;99.90;;;;;;5035363;28;20430;-86
2023/08/31 07:33:53;;;;;;;3.67;2.53;;;15.20;99.90;;;;;;5035293;28;21034;-85
2023/08/31 07:36:20;;;;;;;3.50;2.30;;;15.20;99.90;;;;;;5035539;28;20496;-84
2023/08/31 07:38:51;;;;;;;3.60;2.90;;;15.20;99.90;;;;;;5035512;28;20927;-84
2023/08/31 07:41:20;;;;;;;4.50;3.10;;;15.20;99.90;;;;;;5035264;28;20458;-85
2023/08/31 07:43:52;;;;;;;4.60;2.80;;;15.30;99.90;;;;;;5035513;28;20879;-85
2023/08/31 07:46:19;;;;;;;4.63;3.30;;;15.30;99.90;;;;;;5035139;28;20966;-85
2023/08/31 07:48:52;;;;;;;3.80;2.60;;;15.30;99.90;;;;;;5034950;28;20920;-85
2023/08/31 07:51:22;;;;;;;3.70;2.20;;;15.40;99.90;;;;;;5035029;28;20438;-85
2023/08/31 07:53:50;;;;;;;3.50;2.50;;;15.50;99.90;;;;;;5035166;28;20434;-85
2023/08/31 07:56:20;;;;;;;4.27;2.37;;;15.70;99.90;;;;;;5035202;28;20833;-85
2023/08/31 07:58:47;;;;;;;3.67;2.13;;;15.80;99.90;;;;;;5033709;28;20470;-83
2023/08/31 08:01:14;;;;;;;3.23;2.60;;;15.90;99.90;;;;;;5035095;28;20443;-85
2023/08/31 08:03:41;;;;;;;3.63;2.57;;;16.00;99.90;;;;;;5034714;28;20439;-85
2023/08/31 08:06:08;;;;;;;3.40;2.33;;;16.00;99.90;;;;;;5034916;28;20430;-85
2023/08/31 08:08:35;;;;;;;4.20;2.53;;;16.10;99.90;;;;;;5034939;28;20441;-85
2023/08/31 08:11:05;;;;;;;3.03;1.80;;;16.20;99.90;;;;;;5034653;28;20446;-85
2023/08/31 08:13:33;;;;;;;5.13;2.13;;;16.30;99.90;;;;;;5034939;28;20841;-85
2023/08/31 08:16:02;;;;;;;3.90;2.50;;;16.40;99.90;;;;;;5034563;28;20477;-85
2023/08/31 08:18:30;;;;;;;5.77;2.70;;;16.50;99.90;;;;;;5034472;28;20423;-85
2023/08/31 08:20:58;;;;;;;3.00;1.70;;;16.50;99.70;;;;;;5034420;28;20525;-85
2023/08/31 08:23:26;;;;;;;3.93;1.73;;;16.60;99.90;;;;;;5034458;28;20434;-84
2023/08/31 08:25:53;;;;;;;2.80;1.50;;;16.60;99.80;;;;;;5034593;28;20540;-85
2023/08/31 08:28:20;;;;;;;2.63;1.43;;;16.60;99.90;;;;;;5034648;28;20504;-85
2023/08/31 08:30:50;;;;;;;3.10;1.80;;;16.50;99.90;;;;;;5034401;28;20430;-85
2023/08/31 08:33:16;;;;;;;3.30;1.63;;;16.50;99.90;;;;;;5034495;28;20466;-85
2023/08/31 08:35:43;;;;;;;3.83;2.40;;;16.50;99.90;;;;;;5034562;28;20454;-85
2023/08/31 08:38:10;;;;;;;3.50;2.30;;;16.50;99.90;;;;;;5034411;28;20462;-84
2023/08/31 08:40:37;;;;;;;3.53;2.13;;;16.60;99.90;;;;;;5033709;28;20932;-85
2023/08/31 08:43:07;;;;;;;3.30;1.90;;;16.70;99.90;;;;;;5034022;28;20419;-85
2023/08/31 08:45:38;;;;;;;3.40;2.07;;;16.80;99.90;;;;;;5034054;28;20486;-85
2023/08/31 08:48:08;;;;;;;4.00;1.53;;;16.90;98.80;;;;;;5033760;28;20414;-85
2023/08/31 08:50:36;;;;;;;3.43;1.80;;;16.90;99.30;;;;;;5034113;28;20541;-85
2023/08/31 08:53:04;;;;;;;2.83;1.67;;;17.00;99.30;;;;;;5034128;28;20462;-85
2023/08/31 08:55:31;;;;;;;2.97;1.53;;;17.00;99.10;;;;;;5034254;28;20907;-84
2023/08/31 08:58:00;;;;;;;7.00;1.87;;;17.10;99.20;;;;;;5033819;28;20498;-84
2023/08/31 09:00:27;;;;;;;3.63;1.90;;;17.20;99.20;;;;;;5033808;28;20445;-84
2023/08/31 09:02:55;;;;;;;3.77;1.90;;;17.30;99.00;;;;;;5033620;28;20514;-85
2023/08/31 09:05:24;;;;;;;3.00;1.70;;;17.40;97.80;;;;;;5033807;28;20523;-84
2023/08/31 09:08:05;;;;;;;2.90;1.40;;;17.50;98.20;;;;;;5033406;28;20434;-85
2023/08/31 09:10:37;;;;;;;3.30;1.97;;;17.60;98.30;;;;;;5033213;28;20488;-85
2023/08/31 09:13:08;;;;;;;3.60;1.40;;;17.70;98.80;;;;;;5033699;28;20943;-85
2023/08/31 09:15:42;;;;;;;2.50;1.40;;;17.90;97.70;;;;;;5033422;28;20427;-84
2023/08/31 09:18:09;;;;;;;3.30;1.30;;;18.20;96.30;;;;;;5033752;28;20423;-85
2023/08/31 09:20:47;;;;;;;3.40;1.40;;;18.50;95.80;;;;;;5033551;28;20496;-85
2023/08/31 09:23:14;;;;;;;2.30;1.30;;;19.10;94.80;;;;;;5033438;28;20836;-85
2023/08/31 09:25:45;;;;;;;3.47;1.50;;;19.80;95.10;;;;;;5033549;28;20542;-84
2023/08/31 09:28:14;;;;;;;3.00;1.53;;;20.70;94.10;;;;;;5033609;28;20847;-85
2023/08/31 09:30:41;;;;;;;2.37;1.07;;;24.80;91.60;;;;;;5033495;28;20558;-85
2023/08/31 09:33:10;;;;;;;3.20;1.20;;;26.80;70.20;;;;;;5033145;28;20443;-86
2023/08/31 09:35:52;;;;;;;3.10;1.37;;;26.60;64.70;;;;;;5033401;28;20466;-87
2023/08/31 09:38:20;;;;;;;4.07;1.57;;;25.90;63.70;;;;;;5033571;28;20481;-87
2023/08/31 09:40:47;;;;;;;3.50;1.17;;;25.20;61.80;;;;;;5033427;28;20435;-87
2023/08/31 09:43:21;;;;;;;2.80;1.30;;;24.70;62.00;;;;;;5033043;28;20499;-83
2023/08/31 09:45:53;;;;;;;2.90;1.03;;;25.20;65.30;;;;;;5033370;28;20480;-86
2023/08/31 09:48:20;;;;;;;2.17;0.87;;;26.40;61.00;;;;;;5033438;28;20500;-86
2023/08/31 09:50:49;;;;;;;2.50;1.17;;;26.80;58.50;;;;;;5030723;28;20513;-86
2023/08/31 09:53:20;;;;;;;2.93;1.70;;;27.40;57.80;;;;;;5032824;28;20870;-86
2023/08/31 09:55:49;;;;;;;2.80;1.53;;;28.50;55.50;;;;;;5033017;28;20430;-86
2023/08/31 09:58:20;;;;;;;2.80;1.60;;;28.10;53.70;;;;;;5032482;28;20569;-87
2023/08/31 10:00:49;;;;;;;2.87;1.10;;;27.30;52.30;;;;;;5032852;28;20466;-86
2023/08/31 10:03:16;;;;;;;2.80;1.40;;;27.10;55.50;;;;;;5033120;28;20833;-86
2023/08/31 10:05:44;;;;;;;3.00;1.30;;;28.10;52.30;;;;;;5033076;28;20466;-86
2023/08/31 10:08:12;;;;;;;2.50;1.17;;;30.40;50.60;;;;;;5032770;28;20430;-87
2023/08/31 10:10:42;;;;;;;2.60;1.50;;;33.50;46.10;;;;;;5031592;28;20504;-86
2023/08/31 10:13:09;;;;;;;3.43;1.23;;;36.00;38.10;;;;;;5032984;28;20434;-86
2023/08/31 10:15:37;;;;;;;3.20;1.53;;;37.80;33.90;;;;;;5032923;28;20446;-85
2023/08/31 10:18:05;;;;;;;4.50;1.40;;;39.40;32.00;;;;;;5032927;28;20944;-85
2023/08/31 10:20:42;;;;;;;4.00;1.50;;;40.60;27.80;;;;;;5032998;28;20436;-86
2023/08/31 10:23:09;;;;;;;3.00;1.43;;;41.10;27.00;;;;;;5035759;28;20487;-86
2023/08/31 10:26:04;;;;;;;2.73;1.20;;;40.30;26.90;;;;;;5036383;28;20464;-86
2023/08/31 10:28:39;;;;;;;2.90;1.40;;;39.00;25.20;;;;;;5036988;28;20517;-87
2023/08/31 10:31:08;;;;;;;3.27;1.77;;;37.40;25.90;;;;;;5036933;28;20480;-87
2023/08/31 10:33:36;;;;;;;3.80;1.53;;;35.80;26.60;;;;;;5036739;28;20442;-86
2023/08/31 10:36:03;;;;;;;2.87;1.40;;;34.80;29.40;;;;;;5036408;28;20572;-87
2023/08/31 10:38:32;;;;;;;3.77;1.50;;;34.10;30.20;;;;;;5036726;28;20441;-86
2023/08/31 10:41:20;;;;;;;3.90;1.60;;;33.60;30.90;;;;;;5036377;28;20461;-87
2023/08/31 10:43:50;;;;;;;3.53;1.60;;;33.00;32.10;;;;;;5036671;28;20481;-87
2023/08/31 10:46:18;;;;;;;3.83;1.67;;;32.30;32.70;;;;;;5036600;28;20872;-87
2023/08/31 10:48:54;;;;;;;4.77;1.40;;;31.50;33.70;;;;;;5036443;28;20437;-87
2023/08/31 10:51:27;;;;;;;2.50;1.30;;;30.80;35.70;;;;;;5036204;28;20434;-87
2023/08/31 10:54:06;;;;;;;3.53;1.87;;;30.50;37.40;;;;;;5036199;28;20495;-87
2023/08/31 10:56:34;;;;;;;4.90;1.87;;;30.40;36.80;;;;;;5036654;28;20804;-87
2023/08/31 10:59:03;;;;;;;4.00;1.70;;;30.40;38.80;;;;;;5035869;28;20509;-87
2023/08/31 11:01:55;;;;;;;2.90;1.40;;;30.70;35.10;;;;;;5036291;28;20484;-85
2023/08/31 11:04:23;;;;;;;4.50;1.87;;;31.20;34.60;;;;;;5036282;28;20442;-86
2023/08/31 11:06:50;;;;;;;3.40;1.80;;;31.40;33.20;;;;;;5035665;28;20469;-86
2023/08/31 11:09:22;;;;;;;2.97;1.20;;;31.40;33.90;;;;;;5035216;28;20947;-87
2023/08/31 11:11:50;;;;;;;3.70;1.57;;;31.60;31.90;;;;;;5035751;28;20438;-87
2023/08/31 11:14:17;;;;;;;5.47;2.60;;;31.70;32.80;;;;;;5054431;28;20440;-86
2023/08/31 11:16:45;;;;;;;2.80;1.50;;;31.30;31.60;;;;;;5073718;28;20434;-86
2023/08/31 11:19:12;;;;;;;3.47;1.80;;;31.00;34.00;;;;;;5064428;28;20444;-86
2023/08/31 11:21:39;;;;;;;3.00;1.50;;;30.80;34.70;;;;;;5058013;28;20445;-86
2023/08/31 11:24:08;;;;;;;3.30;1.63;;;30.50;34.40;;;;;;5053195;28;20799;-86
2023/08/31 11:26:38;;;;;;;2.60;1.43;;;30.00;34.10;;;;;;5055492;28;20473;-87
2023/08/31 11:29:09;;;;;;;4.00;1.90;;;29.40;35.70;;;;;;5059060;28;20449;-86
2023/08/31 11:31:40;;;;;;;2.70;1.27;;;28.90;36.20;;;;;;5055104;28;20445;-86
2023/08/31 11:34:08;;;;;;;4.90;1.53;;;28.70;36.60;;;;;;5063179;28;20524;-85
2023/08/31 11:36:35;;;;;;;4.27;1.60;;;28.80;37.80;;;;;;5074611;28;20452;-87
2023/08/31 11:39:04;;;;;;;3.63;1.30;;;28.70;39.10;;;;;;5075470;28;20471;-87
2023/08/31 11:41:33;;;;;;;2.70;1.50;;;28.50;38.00;;;;;;5065233;28;20508;-87
2023/08/31 11:44:00;;;;;;;5.77;1.67;;;28.30;38.30;;;;;;5035205;28;20438;-87
2023/08/31 11:46:29;;;;;;;3.90;1.60;;;28.00;37.70;;;;;;5035419;28;20551;-87
2023/08/31 11:48:56;;;;;;;3.50;1.23;;;27.70;38.30;;;;;;5035407;28;20438;-87
2023/08/31 11:51:23;;;;;;;4.60;2.10;;;27.50;38.40;;;;;;5035072;28;20932;-86
2023/08/31 11:53:51;;;;;;;4.53;2.53;;;27.50;39.00;;;;;;5035298;28;20434;-85
2023/08/31 11:56:18;;;;;;;3.17;1.17;;;27.60;39.20;;;;;;5035342;28;20513;-87
2023/08/31 11:58:47;;;;;;;3.13;1.43;;;27.70;38.40;;;;;;5035479;28;20666;-87
2023/08/31 12:01:20;;;;;;;3.40;1.50;;;27.80;39.30;;;;;;5035215;28;20449;-86
2023/08/31 12:03:49;;;;;;;4.33;1.60;;;27.90;39.70;;;;;;5034893;28;20426;-85
2023/08/31 12:06:18;;;;;;;3.40;1.70;;;27.90;39.70;;;;;;5034656;28;20482;-86
2023/08/31 12:08:45;;;;;;;4.93;1.57;;;27.60;38.20;;;;;;5035220;28;20873;-85
2023/08/31 12:11:12;;;;;;;7.80;1.87;;;27.60;40.20;;;;;;5034872;28;20985;-86
2023/08/31 12:13:39;;;;;;;5.53;1.40;;;27.60;40.50;;;;;;5034683;28;20434;-86
2023/08/31 12:16:13;;;;;;;4.40;1.40;;;27.70;40.20;;;;;;5034961;28;20445;-86
2023/08/31 12:18:41;;;;;;;4.77;1.63;;;27.70;40.20;;;;;;5035001;28;20454;-86
2023/08/31 12:21:09;;;;;;;4.20;1.60;;;27.70;40.20;;;;;;5034803;28;20537;-85
2023/08/31 12:23:36;;;;;;;4.67;2.10;;;27.70;43.10;;;;;;5034739;28;20840;-86
2023/08/31 12:26:07;;;;;;;7.10;1.70;;;27.80;41.00;;;;;;5034699;28;20747;-86
2023/08/31 12:28:34;;;;;;;2.83;1.50;;;27.70;39.40;;;;;;5034476;28;20431;-85
2023/08/31 12:31:01;;;;;;;5.57;1.70;;;27.60;38.90;;;;;;5034781;28;20442;-86
2023/08/31 12:33:28;;;;;;;4.03;1.30;;;27.50;39.20;;;;;;5034297;28;20488;-86
2023/08/31 12:35:55;;;;;;;4.50;1.87;;;27.40;39.90;;;;;;5033944;28;20446;-86
2023/08/31 12:38:24;;;;;;;4.10;1.73;;;27.40;39.80;;;;;;5034142;28;20442;-85
2023/08/31 12:40:51;;;;;;;3.20;1.30;;;27.30;40.80;;;;;;5034349;28;20844;-85
2023/08/31 12:43:18;;;;;;;3.83;1.70;;;27.00;41.20;;;;;;5034362;28;20777;-86
2023/08/31 12:45:45;;;;;;;3.57;1.40;;;26.70;42.50;;;;;;5033586;28;20513;-86
2023/08/31 12:48:12;;;;;;;3.10;1.50;;;26.50;41.80;;;;;;5034017;28;20466;-84
2023/08/31 12:50:39;;;;;;;4.80;1.70;;;26.30;41.90;;;;;;5033939;28;20940;-86
2023/08/31 12:53:06;;;;;;;3.27;1.60;;;26.10;41.60;;;;;;5034174;28;20485;-86
2023/08/31 12:55:34;;;;;;;3.67;1.77;;;26.00;42.60;;;;;;5033869;28;20434;-86